Time;durP1;ratioP1;P1;durP2;ratioP2;P2;SDS_P1;SDS_P2;PMS_P1;PMS_P2;Temp;Humidity;BMP_temperature;BMP_pressure;BME280_temperature;BME280_humidity;BME280_pressure;Samples;Min_cycle;Max_cycle;Signal;HPM_P1;HPM_P2
2022/01/28 00:00:13;;;;;;;6.40;1.20;;;28.50;99.90;;;;;;5088688;28;20589;-74
2022/01/28 00:05:30;;;;;;;6.03;1.20;;;28.40;99.90;;;;;;5081563;28;20719;-74
2022/01/28 00:08:01;;;;;;;4.00;1.10;;;28.40;99.90;;;;;;5091998;28;20204;-74
2022/01/28 00:10:32;;;;;;;4.88;0.98;;;28.40;99.90;;;;;;5080318;28;20600;-74
2022/01/28 00:16:05;;;;;;;4.60;0.98;;;28.40;99.90;;;;;;5081033;28;20188;-73
2022/01/28 00:18:57;;;;;;;5.85;1.00;;;28.30;99.90;;;;;;5090852;28;20217;-74
2022/01/28 00:38:09;;;;;;;4.15;0.90;;;28.20;99.90;;;;;;5079984;28;20218;-74
2022/01/28 00:40:40;;;;;;;3.80;0.80;;;28.30;99.90;;;;;;5084246;28;20193;-73
2022/01/28 00:43:10;;;;;;;5.47;1.52;;;28.40;99.90;;;;;;5082116;28;20628;-73
2022/01/28 00:45:41;;;;;;;5.78;1.10;;;28.50;99.90;;;;;;5076100;28;20189;-73
2022/01/28 00:48:12;;;;;;;6.78;1.02;;;28.80;99.90;;;;;;5075298;28;20248;-74
2022/01/28 00:50:42;;;;;;;5.50;1.17;;;28.90;99.90;;;;;;5085575;28;20192;-74
2022/01/28 00:53:15;;;;;;;4.97;0.90;;;29.00;99.90;;;;;;5088802;28;20595;-74
2022/01/28 00:55:46;;;;;;;6.47;1.20;;;29.00;99.90;;;;;;5075108;28;20228;-73
2022/01/28 00:58:16;;;;;;;4.45;1.02;;;28.90;99.90;;;;;;5079620;28;20205;-73
2022/01/28 01:00:47;;;;;;;5.10;1.10;;;28.80;99.90;;;;;;5083166;28;20274;-73
2022/01/28 01:03:18;;;;;;;5.10;1.00;;;28.80;99.90;;;;;;5078550;28;20222;-75
2022/01/28 01:05:48;;;;;;;4.20;1.00;;;28.90;99.90;;;;;;5083365;28;20250;-74
2022/01/28 01:08:21;;;;;;;3.10;1.10;;;28.70;99.90;;;;;;5082972;28;20252;-74
2022/01/28 01:10:53;;;;;;;4.45;0.82;;;28.90;99.90;;;;;;5091018;28;20185;-73
2022/01/28 01:13:24;;;;;;;5.07;1.20;;;29.00;99.90;;;;;;5080146;28;20314;-74
2022/01/28 01:15:59;;;;;;;5.95;1.00;;;29.20;99.90;;;;;;5077569;28;20592;-74
2022/01/28 01:18:35;;;;;;;8.68;1.10;;;29.30;99.90;;;;;;5086142;28;20700;-73
2022/01/28 01:21:10;;;;;;;6.55;1.20;;;29.20;99.90;;;;;;5076086;28;20249;-74
2022/01/28 01:23:50;;;;;;;5.82;1.00;;;29.10;99.90;;;;;;5074486;28;20704;-73
2022/01/28 01:26:29;;;;;;;7.00;1.35;;;29.10;99.90;;;;;;5082817;28;20211;-73
2022/01/28 01:29:00;;;;;;;4.63;1.30;;;28.80;99.90;;;;;;5091076;28;20762;-74
2022/01/28 01:31:31;;;;;;;4.55;1.10;;;28.60;99.90;;;;;;5074410;28;20185;-73
2022/01/28 01:34:10;;;;;;;5.82;1.33;;;28.40;99.90;;;;;;5074249;28;20189;-73
2022/01/28 01:36:40;;;;;;;2.65;1.25;;;28.50;99.90;;;;;;5074509;28;20189;-73
2022/01/28 01:39:16;;;;;;;5.82;1.50;;;28.70;99.90;;;;;;5082702;28;20237;-72
2022/01/28 01:41:52;;;;;;;5.35;1.50;;;28.70;99.90;;;;;;5074116;28;20195;-74
2022/01/28 01:44:35;;;;;;;3.95;1.20;;;28.60;99.90;;;;;;5073801;28;20197;-73
2022/01/28 01:52:46;;;;;;;6.22;1.38;;;28.80;99.90;;;;;;5073374;28;20196;-72
2022/01/28 01:55:19;;;;;;;3.33;1.40;;;28.90;99.90;;;;;;5073675;28;20233;-72
2022/01/28 01:57:49;;;;;;;4.53;1.17;;;28.90;99.90;;;;;;5073831;28;20197;-71
2022/01/28 02:00:21;;;;;;;4.35;1.02;;;28.80;99.90;;;;;;5088865;28;20212;-74
2022/01/28 02:02:52;;;;;;;4.38;0.95;;;28.80;99.90;;;;;;5093488;28;20184;-72
2022/01/28 02:05:22;;;;;;;4.78;1.00;;;28.90;99.90;;;;;;5079037;28;20189;-74
2022/01/28 02:07:53;;;;;;;2.83;0.80;;;28.90;99.90;;;;;;5081823;28;20196;-73
2022/01/28 02:10:25;;;;;;;4.97;1.00;;;28.80;99.90;;;;;;5079864;28;20606;-74
2022/01/28 02:12:56;;;;;;;3.92;1.00;;;28.70;99.90;;;;;;5084829;28;20640;-74
2022/01/28 02:15:27;;;;;;;3.10;0.80;;;28.80;99.90;;;;;;5079397;28;20193;-74
2022/01/28 02:17:59;;;;;;;4.53;0.90;;;28.90;99.90;;;;;;5073534;28;20193;-73
2022/01/28 02:20:35;;;;;;;3.63;0.90;;;28.90;99.90;;;;;;5073475;28;20192;-73
2022/01/28 02:23:06;;;;;;;5.68;1.00;;;28.80;99.90;;;;;;5083239;28;20185;-72
2022/01/28 02:25:37;;;;;;;3.75;0.82;;;28.80;99.90;;;;;;5079393;28;20189;-72
2022/01/28 02:28:10;;;;;;;3.78;0.82;;;28.90;99.90;;;;;;5075637;28;20603;-72
2022/01/28 02:30:41;;;;;;;4.30;1.00;;;29.00;99.90;;;;;;5084898;28;20227;-72
2022/01/28 02:33:14;;;;;;;4.30;0.98;;;29.00;99.90;;;;;;5075090;28;20246;-72
2022/01/28 02:35:47;;;;;;;5.93;0.93;;;29.00;99.90;;;;;;5074470;28;20234;-71
2022/01/28 02:38:20;;;;;;;4.18;0.85;;;29.00;99.90;;;;;;5080956;28;20268;-71
2022/01/28 02:40:55;;;;;;;4.25;0.80;;;28.70;99.90;;;;;;5078301;28;20192;-72
2022/01/28 02:43:33;;;;;;;4.07;0.90;;;28.70;99.90;;;;;;5076030;28;20584;-72
2022/01/28 02:46:07;;;;;;;5.18;1.00;;;28.80;99.90;;;;;;5093136;28;20275;-71
2022/01/28 02:48:41;;;;;;;4.10;0.80;;;28.90;99.90;;;;;;5073381;28;20725;-74
2022/01/28 02:51:17;;;;;;;4.95;0.90;;;28.90;99.90;;;;;;5079578;28;20219;-73
2022/01/28 02:53:52;;;;;;;3.53;0.88;;;28.90;99.90;;;;;;5081620;28;20196;-74
2022/01/28 02:56:32;;;;;;;5.40;0.93;;;29.00;99.90;;;;;;5080357;28;20235;-72
2022/01/28 02:59:03;;;;;;;3.85;1.00;;;29.20;99.90;;;;;;5088281;28;20221;-74
2022/01/28 03:01:39;;;;;;;4.25;0.85;;;29.10;99.90;;;;;;5081088;28;20189;-74
2022/01/28 03:04:13;;;;;;;2.40;0.80;;;29.10;99.90;;;;;;5073273;28;20263;-73
2022/01/28 03:06:46;;;;;;;3.67;0.57;;;29.10;99.90;;;;;;5080740;28;20257;-73
2022/01/28 03:09:20;;;;;;;3.08;0.73;;;28.90;99.90;;;;;;5073043;28;20269;-72
2022/01/28 03:11:59;;;;;;;3.35;0.70;;;28.70;99.90;;;;;;5082230;28;20701;-73
2022/01/28 03:14:48;;;;;;;5.10;0.82;;;28.80;99.90;;;;;;5084261;28;20216;-73
2022/01/28 03:17:51;;;;;;;2.15;0.80;;;28.90;99.90;;;;;;5081229;28;20200;-74
2022/01/28 03:20:32;;;;;;;4.15;0.80;;;28.90;99.90;;;;;;5080677;28;20724;-74
2022/01/28 03:23:05;;;;;;;4.65;0.80;;;28.80;99.90;;;;;;5072792;28;20220;-73
2022/01/28 03:25:43;;;;;;;3.40;0.68;;;29.00;99.90;;;;;;5072572;28;20189;-74
2022/01/28 03:28:14;;;;;;;3.17;0.68;;;29.10;99.90;;;;;;5083172;28;20192;-74
2022/01/28 03:30:45;;;;;;;4.18;0.77;;;29.10;99.90;;;;;;5078236;28;20216;-74
2022/01/28 03:33:16;;;;;;;4.35;0.75;;;29.10;99.90;;;;;;5082896;28;20193;-73
2022/01/28 03:35:46;;;;;;;2.42;0.65;;;29.00;99.90;;;;;;5077976;28;20192;-73
2022/01/28 03:38:19;;;;;;;5.78;0.70;;;29.00;99.90;;;;;;5074942;28;20193;-73
2022/01/28 03:40:52;;;;;;;2.88;0.50;;;28.80;99.90;;;;;;5081075;28;20251;-74
2022/01/28 03:43:22;;;;;;;2.72;0.65;;;28.70;99.90;;;;;;5089028;28;20238;-73
2022/01/28 03:45:53;;;;;;;6.28;0.95;;;28.50;99.90;;;;;;5077330;28;20768;-73
2022/01/28 03:48:24;;;;;;;3.33;0.85;;;28.70;99.90;;;;;;5082927;28;20196;-73
2022/01/28 03:50:54;;;;;;;5.60;0.80;;;28.80;99.90;;;;;;5082915;28;20213;-73
2022/01/28 03:53:27;;;;;;;5.32;0.90;;;28.80;99.90;;;;;;5076241;28;20193;-72
2022/01/28 03:55:58;;;;;;;4.45;0.95;;;28.80;99.90;;;;;;5075799;28;20232;-73
2022/01/28 03:58:29;;;;;;;1.67;0.63;;;28.90;99.90;;;;;;5075779;28;20185;-74
2022/01/28 04:01:00;;;;;;;4.80;0.88;;;28.80;99.90;;;;;;5075954;28;20270;-73
2022/01/28 04:03:48;;;;;;;6.10;0.85;;;28.90;99.90;;;;;;5075712;28;20239;-73
2022/01/28 04:11:53;;;;;;;7.75;1.00;;;28.60;99.90;;;;;;5077160;28;20195;-75
2022/01/28 04:14:37;;;;;;;4.68;0.70;;;28.60;99.90;;;;;;5087716;28;20224;-73
2022/01/28 04:19:57;;;;;;;3.10;0.82;;;28.40;99.90;;;;;;5072094;28;20193;-72
2022/01/28 04:22:28;;;;;;;3.42;0.65;;;28.50;99.90;;;;;;5083581;28;20200;-73
2022/01/28 04:25:00;;;;;;;3.42;0.70;;;28.50;99.90;;;;;;5075639;28;20197;-74
2022/01/28 04:27:31;;;;;;;4.78;1.00;;;28.50;99.90;;;;;;5084067;28;20185;-74
2022/01/28 04:30:02;;;;;;;3.75;0.70;;;28.60;99.90;;;;;;5075626;28;20212;-74
2022/01/28 04:32:33;;;;;;;5.47;0.88;;;28.50;99.90;;;;;;5083551;28;20196;-73
2022/01/28 04:35:04;;;;;;;6.07;0.95;;;28.30;99.90;;;;;;5083927;28;20189;-74
2022/01/28 04:37:42;;;;;;;3.72;0.70;;;28.20;99.90;;;;;;5083476;28;20181;-74
2022/01/28 04:40:17;;;;;;;4.65;0.80;;;28.20;99.90;;;;;;5075507;28;20279;-72
2022/01/28 04:43:06;;;;;;;4.38;0.75;;;28.20;99.90;;;;;;5081728;28;20271;-72
2022/01/28 04:45:43;;;;;;;4.45;0.82;;;28.40;99.90;;;;;;5083213;28;20203;-73
2022/01/28 04:48:23;;;;;;;3.50;0.68;;;28.20;99.90;;;;;;5083319;28;20211;-73
2022/01/28 04:51:08;;;;;;;3.33;0.70;;;28.20;99.90;;;;;;5083411;28;20620;-75
2022/01/28 04:53:58;;;;;;;3.75;0.70;;;28.10;99.90;;;;;;5083485;28;20200;-73
2022/01/28 04:56:44;;;;;;;5.40;0.75;;;28.00;99.90;;;;;;5083018;28;20303;-72
2022/01/28 04:59:34;;;;;;;5.45;0.70;;;27.90;99.90;;;;;;5085124;28;21074;-73
2022/01/28 05:02:35;;;;;;;5.68;0.88;;;27.90;99.90;;;;;;5086718;28;20269;-73
2022/01/28 05:05:30;;;;;;;3.47;0.90;;;27.90;99.90;;;;;;5079214;28;20185;-73
2022/01/28 05:08:22;;;;;;;5.63;0.90;;;27.90;99.90;;;;;;5083435;28;20250;-73
2022/01/28 05:27:37;;;;;;;3.17;0.85;;;27.70;99.90;;;;;;5072992;28;20199;-74
2022/01/28 05:30:11;;;;;;;5.15;0.90;;;27.70;99.90;;;;;;5082973;28;20629;-74
2022/01/28 05:32:42;;;;;;;2.72;0.80;;;27.80;99.90;;;;;;5074358;28;20185;-73
2022/01/28 05:35:13;;;;;;;7.93;1.00;;;27.80;99.90;;;;;;5090972;28;20219;-73
2022/01/28 05:37:44;;;;;;;3.13;0.82;;;27.70;99.90;;;;;;5083176;28;20230;-74
2022/01/28 05:40:15;;;;;;;6.47;0.77;;;27.80;99.90;;;;;;5078713;28;20196;-74
2022/01/28 05:42:45;;;;;;;6.75;0.80;;;27.90;99.90;;;;;;5077522;28;20189;-73
2022/01/28 05:45:18;;;;;;;2.65;0.50;;;28.00;99.90;;;;;;5077387;28;20195;-74
2022/01/28 05:47:48;;;;;;;5.22;0.70;;;28.00;99.90;;;;;;5082405;28;20189;-74
2022/01/28 05:50:19;;;;;;;3.45;0.60;;;28.00;99.90;;;;;;5080011;28;20696;-74
2022/01/28 05:52:50;;;;;;;6.15;0.60;;;27.90;99.90;;;;;;5085866;28;20185;-73
2022/01/28 05:55:20;;;;;;;3.33;0.65;;;27.70;99.90;;;;;;5085842;28;20235;-77
2022/01/28 05:57:51;;;;;;;3.33;0.60;;;27.70;99.90;;;;;;5077951;28;20674;-75
2022/01/28 06:00:25;;;;;;;3.83;0.73;;;27.50;99.90;;;;;;5091203;28;20580;-75
2022/01/28 06:02:56;;;;;;;3.05;0.60;;;27.50;99.90;;;;;;5078602;28;20245;-74
2022/01/28 06:05:29;;;;;;;5.75;0.80;;;27.40;99.90;;;;;;5081250;28;20188;-74
2022/01/28 06:08:00;;;;;;;3.58;0.52;;;27.40;99.90;;;;;;5082218;28;20632;-74
2022/01/28 06:10:31;;;;;;;2.88;0.68;;;27.30;99.90;;;;;;5084502;28;20205;-74
2022/01/28 06:13:02;;;;;;;3.13;0.60;;;27.30;99.90;;;;;;5078006;28;20254;-75
2022/01/28 06:15:34;;;;;;;3.10;0.60;;;27.30;99.90;;;;;;5088133;28;20181;-74
2022/01/28 06:18:05;;;;;;;5.03;0.80;;;27.20;99.90;;;;;;5086194;28;20192;-74
2022/01/28 06:20:39;;;;;;;4.80;0.70;;;27.20;99.90;;;;;;5083267;28;20710;-75
2022/01/28 06:23:10;;;;;;;4.40;0.68;;;27.20;99.90;;;;;;5078472;28;20224;-74
2022/01/28 06:25:43;;;;;;;3.53;0.70;;;27.30;99.90;;;;;;5086164;28;20189;-74
2022/01/28 06:28:13;;;;;;;1.65;0.60;;;27.20;99.90;;;;;;5080894;28;20196;-75
2022/01/28 06:30:46;;;;;;;3.83;0.70;;;27.20;99.90;;;;;;5079214;28;20219;-75
2022/01/28 06:33:17;;;;;;;3.55;0.60;;;27.20;99.90;;;;;;5080103;28;20180;-75
2022/01/28 06:35:49;;;;;;;3.97;0.60;;;27.10;99.90;;;;;;5080139;28;20199;-74
2022/01/28 06:38:19;;;;;;;5.78;0.77;;;27.10;99.90;;;;;;5080704;28;20253;-74
2022/01/28 06:40:51;;;;;;;5.25;0.70;;;27.10;99.90;;;;;;5088290;28;20192;-73
2022/01/28 06:43:21;;;;;;;3.88;0.70;;;27.00;99.90;;;;;;5086632;28;20207;-74
2022/01/28 06:45:54;;;;;;;4.05;0.57;;;26.90;99.90;;;;;;5084723;28;20189;-74
2022/01/28 06:48:24;;;;;;;4.20;0.85;;;26.90;99.90;;;;;;5076106;28;20643;-74
2022/01/28 06:50:55;;;;;;;3.90;0.80;;;26.80;99.90;;;;;;5078877;28;20208;-74
2022/01/28 06:53:26;;;;;;;3.60;0.95;;;26.80;99.90;;;;;;5081378;28;20193;-75
2022/01/28 06:55:56;;;;;;;3.22;0.70;;;26.90;99.90;;;;;;5079408;28;20703;-75
2022/01/28 06:58:27;;;;;;;3.97;0.73;;;26.80;99.90;;;;;;5084662;28;20181;-77
2022/01/28 07:01:00;;;;;;;3.67;0.75;;;26.80;99.90;;;;;;5081096;28;20212;-74
2022/01/28 07:03:30;;;;;;;3.70;0.80;;;26.70;99.90;;;;;;5079767;28;20193;-75
2022/01/28 07:06:01;;;;;;;4.85;0.68;;;26.70;99.90;;;;;;5083428;28;20261;-78
2022/01/28 07:08:33;;;;;;;4.30;0.70;;;26.50;99.90;;;;;;5078483;28;20181;-75
2022/01/28 07:11:03;;;;;;;4.13;0.75;;;26.50;99.90;;;;;;5075987;28;20261;-75
2022/01/28 07:13:37;;;;;;;3.72;0.75;;;26.50;99.90;;;;;;5073966;28;20192;-77
2022/01/28 07:16:09;;;;;;;4.57;0.90;;;26.50;99.90;;;;;;5080936;28;20575;-77
2022/01/28 07:18:40;;;;;;;4.10;1.05;;;26.40;99.90;;;;;;5078028;28;20188;-74
2022/01/28 07:21:12;;;;;;;6.82;0.90;;;26.30;99.90;;;;;;5074244;28;20192;-74
2022/01/28 07:23:43;;;;;;;3.55;0.70;;;26.30;99.90;;;;;;5083667;28;20185;-74
2022/01/28 07:26:14;;;;;;;5.03;0.90;;;26.30;99.90;;;;;;5080311;28;20640;-74
2022/01/28 07:28:45;;;;;;;5.85;0.70;;;26.30;99.90;;;;;;5092952;28;20182;-76
2022/01/28 07:31:19;;;;;;;4.70;0.82;;;26.30;99.90;;;;;;5093256;28;20682;-75
2022/01/28 07:33:49;;;;;;;3.38;0.70;;;26.20;99.90;;;;;;5081718;28;20225;-74
2022/01/28 07:36:20;;;;;;;4.72;0.77;;;26.20;99.90;;;;;;5088493;28;20196;-74
2022/01/28 07:38:51;;;;;;;3.45;0.63;;;26.10;99.90;;;;;;5092154;28;20188;-75
2022/01/28 07:41:23;;;;;;;2.35;0.77;;;26.00;99.90;;;;;;5083016;28;20192;-74
2022/01/28 07:43:53;;;;;;;2.92;0.70;;;25.90;99.90;;;;;;5081020;28;20191;-76
2022/01/28 07:46:26;;;;;;;4.07;0.77;;;25.90;99.90;;;;;;5092900;28;20632;-76
2022/01/28 07:48:56;;;;;;;2.88;0.80;;;25.90;99.90;;;;;;5076192;28;20192;-74
2022/01/28 07:51:27;;;;;;;7.18;2.90;;;25.90;99.90;;;;;;5082978;28;20232;-74
2022/01/28 07:53:58;;;;;;;4.70;0.80;;;25.90;99.90;;;;;;5085695;28;20189;-74
2022/01/28 07:56:29;;;;;;;4.40;0.82;;;25.90;99.90;;;;;;5083691;28;20228;-74
2022/01/28 07:58:59;;;;;;;7.03;1.00;;;25.80;99.90;;;;;;5079794;28;20606;-74
2022/01/28 08:01:32;;;;;;;4.00;1.00;;;25.80;99.90;;;;;;5080734;28;20196;-74
2022/01/28 08:04:02;;;;;;;6.68;1.00;;;25.80;99.90;;;;;;5086624;28;20185;-74
2022/01/28 08:06:33;;;;;;;4.68;1.00;;;25.70;99.90;;;;;;5080475;28;20189;-75
2022/01/28 08:09:04;;;;;;;6.55;1.08;;;25.70;99.90;;;;;;5084280;28;20199;-75
2022/01/28 08:11:35;;;;;;;6.35;1.13;;;25.60;99.90;;;;;;5078420;28;20220;-74
2022/01/28 08:14:06;;;;;;;6.30;1.10;;;25.60;99.90;;;;;;5084267;28;20275;-73
2022/01/28 08:16:38;;;;;;;3.55;0.85;;;25.50;99.90;;;;;;5083205;28;20605;-73
2022/01/28 08:19:09;;;;;;;5.60;1.20;;;25.50;99.90;;;;;;5079910;28;20237;-73
2022/01/28 08:21:40;;;;;;;6.57;1.20;;;25.40;99.90;;;;;;5084733;28;20196;-72
2022/01/28 08:24:14;;;;;;;3.97;0.93;;;25.40;99.90;;;;;;5078893;28;20207;-73
2022/01/28 08:26:45;;;;;;;6.15;1.10;;;25.40;99.90;;;;;;5085710;28;20193;-73
2022/01/28 08:29:16;;;;;;;8.32;1.45;;;25.50;99.90;;;;;;5074981;28;20200;-73
2022/01/28 08:31:48;;;;;;;5.32;1.17;;;25.40;99.90;;;;;;5074545;28;20735;-73
2022/01/28 08:34:19;;;;;;;5.95;1.10;;;25.40;99.90;;;;;;5074016;28;20200;-73
2022/01/28 08:36:50;;;;;;;5.30;1.13;;;25.30;99.90;;;;;;5072798;28;20207;-72
2022/01/28 08:39:22;;;;;;;4.07;1.15;;;25.20;99.90;;;;;;5074297;28;20188;-73
2022/01/28 08:41:52;;;;;;;5.30;1.20;;;25.20;99.90;;;;;;5087244;28;20724;-73
2022/01/28 08:44:23;;;;;;;7.32;0.90;;;25.10;99.90;;;;;;5078064;28;20629;-73
2022/01/28 08:46:56;;;;;;;7.40;1.38;;;25.10;99.90;;;;;;5086289;28;20185;-73
2022/01/28 08:49:26;;;;;;;10.43;1.42;;;25.00;99.90;;;;;;5082837;28;20550;-72
2022/01/28 08:51:58;;;;;;;9.65;1.40;;;25.00;99.90;;;;;;5085018;28;20209;-73
2022/01/28 08:54:28;;;;;;;8.80;1.17;;;25.00;99.90;;;;;;5078717;28;20636;-73
2022/01/28 08:56:59;;;;;;;5.15;0.90;;;24.90;99.90;;;;;;5080881;28;20196;-74
2022/01/28 08:59:30;;;;;;;7.72;1.63;;;24.90;99.90;;;;;;5084912;28;20220;-73
2022/01/28 09:02:02;;;;;;;19.58;10.65;;;24.90;99.90;;;;;;5084209;28;20189;-73
2022/01/28 09:04:33;;;;;;;7.18;1.50;;;24.90;99.90;;;;;;5089245;28;20635;-74
2022/01/28 09:07:04;;;;;;;5.05;1.10;;;24.80;99.90;;;;;;5081963;28;20231;-73
2022/01/28 09:09:34;;;;;;;6.28;1.30;;;24.80;99.90;;;;;;5083417;28;20199;-73
2022/01/28 09:12:30;;;;;;;6.13;1.25;;;24.70;99.90;;;;;;5082803;28;20235;-73
2022/01/28 09:14:59;;;;;;;8.50;1.30;;;24.70;99.90;;;;;;5088450;28;20291;-73
2022/01/28 09:17:31;;;;;;;9.30;1.27;;;24.60;99.90;;;;;;5082527;28;20198;-74
2022/01/28 09:20:02;;;;;;;11.63;1.50;;;24.60;99.90;;;;;;5077088;28;20193;-72
2022/01/28 09:22:33;;;;;;;8.50;1.27;;;24.60;99.90;;;;;;5085309;28;20237;-73
2022/01/28 09:25:03;;;;;;;6.60;1.23;;;24.60;99.90;;;;;;5085565;28;20189;-74
2022/01/28 09:27:34;;;;;;;7.80;1.45;;;24.60;99.90;;;;;;5078578;28;20193;-74
2022/01/28 09:30:05;;;;;;;11.65;1.52;;;24.60;99.90;;;;;;5075224;28;20185;-73
2022/01/28 09:32:40;;;;;;;7.93;1.40;;;24.60;99.90;;;;;;5076983;28;20216;-74
2022/01/28 09:35:11;;;;;;;6.57;1.30;;;24.50;99.90;;;;;;5080305;28;20183;-75
2022/01/28 09:37:42;;;;;;;8.13;1.20;;;24.40;99.90;;;;;;5079992;28;20189;-74
2022/01/28 09:40:14;;;;;;;9.48;1.60;;;24.40;99.90;;;;;;5076128;28;20197;-75
2022/01/28 09:42:46;;;;;;;9.60;1.40;;;24.40;99.90;;;;;;5082377;28;20184;-74
2022/01/28 09:45:20;;;;;;;11.00;1.63;;;24.40;99.90;;;;;;5080157;28;20193;-74
2022/01/28 09:47:54;;;;;;;7.93;1.30;;;24.40;99.90;;;;;;5076313;28;20195;-76
2022/01/28 09:50:27;;;;;;;10.43;1.40;;;24.40;99.90;;;;;;5079485;28;20199;-74
2022/01/28 09:52:58;;;;;;;12.13;2.22;;;24.40;99.90;;;;;;5075669;28;20560;-74
2022/01/28 09:55:30;;;;;;;9.18;1.65;;;24.30;99.90;;;;;;5073875;28;20236;-75
2022/01/28 09:58:01;;;;;;;8.18;1.67;;;24.40;99.90;;;;;;5073976;28;20201;-74
2022/01/28 10:00:34;;;;;;;8.18;1.42;;;24.30;99.90;;;;;;5081732;28;20216;-75
2022/01/28 10:03:08;;;;;;;9.20;1.38;;;24.30;99.90;;;;;;5082438;28;20193;-73
2022/01/28 10:05:43;;;;;;;10.80;1.58;;;24.30;99.90;;;;;;5077943;28;20224;-74
2022/01/28 10:08:16;;;;;;;6.57;1.50;;;24.20;99.90;;;;;;5086323;28;20631;-74
2022/01/28 10:10:50;;;;;;;15.00;1.75;;;24.30;99.90;;;;;;5072229;28;20220;-73
2022/01/28 10:13:25;;;;;;;11.25;1.77;;;24.20;99.90;;;;;;5075059;28;20557;-73
2022/01/28 10:16:08;;;;;;;10.93;1.65;;;24.20;99.90;;;;;;5082808;28;20196;-73
2022/01/28 10:18:51;;;;;;;13.20;1.58;;;24.20;99.90;;;;;;5079650;28;20189;-73
2022/01/28 10:21:33;;;;;;;12.30;1.92;;;24.20;99.90;;;;;;5082023;28;20195;-73
2022/01/28 10:24:15;;;;;;;7.47;1.40;;;24.20;99.90;;;;;;5075885;28;20200;-73
2022/01/28 10:26:49;;;;;;;10.15;1.80;;;24.20;99.90;;;;;;5079201;28;20233;-74
2022/01/28 10:29:22;;;;;;;10.63;2.15;;;24.20;99.90;;;;;;5079424;28;20200;-73
2022/01/28 10:31:55;;;;;;;10.77;1.70;;;24.20;99.90;;;;;;5083942;28;20215;-73
2022/01/28 10:34:32;;;;;;;6.50;1.20;;;24.20;99.90;;;;;;5077637;28;20184;-74
2022/01/28 10:37:14;;;;;;;8.35;1.30;;;24.10;99.90;;;;;;5079190;28;20192;-74
2022/01/28 10:39:48;;;;;;;12.95;1.50;;;24.10;99.90;;;;;;5079489;28;20193;-73
2022/01/28 10:42:20;;;;;;;13.13;1.63;;;24.20;99.90;;;;;;5073088;28;20196;-74
2022/01/28 10:45:01;;;;;;;12.05;1.50;;;24.10;99.90;;;;;;5082805;28;20636;-73
2022/01/28 10:47:37;;;;;;;10.82;1.55;;;24.10;99.90;;;;;;5080138;28;20230;-74
2022/01/28 10:50:25;;;;;;;11.27;1.70;;;24.10;99.90;;;;;;5090699;28;20643;-74
2022/01/28 10:53:08;;;;;;;12.10;1.70;;;24.10;99.90;;;;;;5079062;28;20266;-73
2022/01/28 10:55:40;;;;;;;11.50;1.67;;;24.10;99.90;;;;;;5078204;28;20231;-74
2022/01/28 10:58:12;;;;;;;8.82;1.77;;;24.10;99.90;;;;;;5079578;28;20202;-74
2022/01/28 11:00:44;;;;;;;11.65;1.80;;;24.10;99.90;;;;;;5073000;28;20225;-74
2022/01/28 11:03:16;;;;;;;10.50;1.75;;;24.10;99.90;;;;;;5082477;28;20196;-73
2022/01/28 11:05:49;;;;;;;10.10;1.73;;;24.10;99.90;;;;;;5084475;28;20192;-73
2022/01/28 11:08:19;;;;;;;9.18;2.08;;;24.10;99.90;;;;;;5072287;28;20192;-75
2022/01/28 11:10:50;;;;;;;14.43;1.80;;;24.10;99.90;;;;;;5076804;28;20240;-75
2022/01/28 11:13:21;;;;;;;12.35;2.15;;;24.00;99.90;;;;;;5078280;28;20185;-74
2022/01/28 11:15:51;;;;;;;12.90;1.70;;;24.00;99.90;;;;;;5082210;28;20191;-73
2022/01/28 11:18:23;;;;;;;7.53;1.38;;;24.00;99.90;;;;;;5079229;28;20246;-73
2022/01/28 11:21:00;;;;;;;10.63;1.58;;;24.00;99.90;;;;;;5074488;28;20754;-74
2022/01/28 11:23:37;;;;;;;10.65;1.38;;;24.00;99.90;;;;;;5074749;28;20188;-74
2022/01/28 11:26:19;;;;;;;11.70;1.92;;;24.00;99.90;;;;;;5073946;28;20197;-74
2022/01/28 11:28:51;;;;;;;11.75;1.48;;;23.90;99.90;;;;;;5080472;28;20193;-73
2022/01/28 11:31:47;;;;;;;9.98;1.40;;;24.00;99.90;;;;;;5072291;28;20240;-74
2022/01/28 11:34:23;;;;;;;14.13;1.92;;;24.00;99.90;;;;;;5076225;28;20645;-73
2022/01/28 11:36:57;;;;;;;10.63;1.52;;;23.90;99.90;;;;;;5085445;28;20189;-74
2022/01/28 11:39:36;;;;;;;11.80;1.60;;;23.90;99.90;;;;;;5085431;28;20239;-74
2022/01/28 11:42:11;;;;;;;9.32;1.60;;;23.90;99.90;;;;;;5074653;28;20201;-74
2022/01/28 11:44:47;;;;;;;12.65;1.58;;;23.90;99.90;;;;;;5086746;28;20192;-73
2022/01/28 11:47:25;;;;;;;16.95;1.80;;;23.90;99.90;;;;;;5079719;28;20632;-74
2022/01/28 11:50:01;;;;;;;14.32;1.75;;;23.90;99.90;;;;;;5080768;28;20196;-72
2022/01/28 11:52:36;;;;;;;11.27;1.77;;;23.90;99.90;;;;;;5083456;28;20208;-75
2022/01/28 11:55:36;;;;;;;13.40;1.70;;;23.90;99.90;;;;;;5078912;28;20227;-73
2022/01/28 11:58:08;;;;;;;12.30;2.15;;;23.90;99.90;;;;;;5090297;28;20192;-74
2022/01/28 12:00:40;;;;;;;13.32;1.60;;;23.80;99.90;;;;;;5072475;28;20221;-74
2022/01/28 12:03:19;;;;;;;11.73;1.92;;;23.80;99.90;;;;;;5073271;28;20671;-74
2022/01/28 12:05:57;;;;;;;13.80;2.05;;;23.80;99.90;;;;;;5087455;28;20548;-73
2022/01/28 12:08:31;;;;;;;10.25;1.48;;;23.80;99.90;;;;;;5085597;28;20192;-74
2022/01/28 12:11:06;;;;;;;9.73;1.42;;;23.80;99.90;;;;;;5086295;28;20184;-74
2022/01/28 12:13:54;;;;;;;12.80;1.60;;;23.80;99.90;;;;;;5086927;28;20187;-74
2022/01/28 12:16:33;;;;;;;13.85;2.22;;;23.90;99.90;;;;;;5076116;28;20193;-74
2022/01/28 12:19:05;;;;;;;11.20;1.48;;;23.80;99.90;;;;;;5084104;28;20192;-73
2022/01/28 12:21:37;;;;;;;9.50;1.83;;;23.80;99.90;;;;;;5081637;28;20311;-74
2022/01/28 12:24:37;;;;;;;10.43;1.92;;;23.80;99.90;;;;;;5075237;28;20199;-73
2022/01/28 12:27:10;;;;;;;12.75;1.70;;;23.80;99.90;;;;;;5081487;28;20200;-74
2022/01/28 12:29:46;;;;;;;13.88;1.85;;;23.80;99.90;;;;;;5075310;28;20215;-73
2022/01/28 12:32:23;;;;;;;14.65;1.50;;;23.80;99.90;;;;;;5087684;28;20213;-73
2022/01/28 12:34:54;;;;;;;12.00;1.75;;;23.80;99.90;;;;;;5082739;28;20584;-74
2022/01/28 12:37:28;;;;;;;10.23;1.65;;;23.80;99.90;;;;;;5083287;28;20192;-74
2022/01/28 12:40:13;;;;;;;11.00;1.75;;;23.70;99.90;;;;;;5087127;28;20271;-74
2022/01/28 12:42:44;;;;;;;12.25;1.73;;;23.80;99.90;;;;;;5094756;28;20217;-73
2022/01/28 12:45:14;;;;;;;10.18;1.60;;;23.70;99.90;;;;;;5079437;28;20575;-73
2022/01/28 12:47:46;;;;;;;11.07;1.75;;;23.70;99.90;;;;;;5078177;28;20196;-73
2022/01/28 12:50:17;;;;;;;9.70;1.63;;;23.70;99.90;;;;;;5081023;28;20242;-73
2022/01/28 12:52:49;;;;;;;12.90;1.63;;;23.70;99.90;;;;;;5087294;28;20212;-73
2022/01/28 12:55:22;;;;;;;12.20;1.58;;;23.70;99.90;;;;;;5083164;28;20239;-74
2022/01/28 12:57:52;;;;;;;12.70;1.65;;;23.70;99.90;;;;;;5083440;28;20197;-74
2022/01/28 13:00:24;;;;;;;14.13;1.83;;;23.70;99.90;;;;;;5082286;28;20737;-74
2022/01/28 13:02:56;;;;;;;8.68;1.48;;;23.70;99.90;;;;;;5083091;28;20185;-75
2022/01/28 13:05:43;;;;;;;8.40;1.50;;;23.70;99.90;;;;;;5086501;28;20187;-74
2022/01/28 13:08:29;;;;;;;14.90;1.85;;;23.70;99.90;;;;;;5081251;28;20276;-74
2022/01/28 13:11:07;;;;;;;10.55;1.60;;;23.60;99.90;;;;;;5090668;28;20184;-74
2022/01/28 13:13:48;;;;;;;10.15;1.52;;;23.60;99.90;;;;;;5077677;28;20216;-75
2022/01/28 13:16:18;;;;;;;11.88;1.50;;;23.60;99.90;;;;;;5075239;28;20188;-73
2022/01/28 13:19:02;;;;;;;10.45;1.88;;;23.60;99.90;;;;;;5082686;28;20230;-74
2022/01/28 13:21:34;;;;;;;8.63;1.60;;;23.60;99.90;;;;;;5079667;28;20194;-73
2022/01/28 13:24:14;;;;;;;13.73;1.67;;;23.60;99.90;;;;;;5082594;28;20227;-74
2022/01/28 13:27:06;;;;;;;15.40;1.60;;;23.60;99.90;;;;;;5082789;28;20550;-73
2022/01/28 13:29:40;;;;;;;10.35;1.80;;;23.50;99.90;;;;;;5082641;28;20636;-74
2022/01/28 13:32:12;;;;;;;11.35;1.58;;;23.50;99.90;;;;;;5082659;28;20219;-74
2022/01/28 13:34:51;;;;;;;14.40;1.88;;;23.50;99.90;;;;;;5084918;28;20189;-74
2022/01/28 13:37:48;;;;;;;14.45;1.77;;;23.50;99.90;;;;;;5077769;28;20184;-73
2022/01/28 13:40:35;;;;;;;13.32;2.08;;;23.50;99.90;;;;;;5044315;28;20188;-74
2022/01/28 13:43:09;;;;;;;11.18;1.45;;;23.50;99.90;;;;;;5074738;28;20287;-74
2022/01/28 13:45:41;;;;;;;7.30;1.52;;;23.50;99.90;;;;;;5093326;28;20189;-74
2022/01/28 13:48:15;;;;;;;10.63;1.70;;;23.50;99.90;;;;;;5093863;28;20272;-75
2022/01/28 13:50:48;;;;;;;8.45;1.58;;;23.50;99.90;;;;;;5082135;28;20553;-74
2022/01/28 13:53:34;;;;;;;10.63;1.63;;;23.50;99.90;;;;;;5086470;28;20212;-74
2022/01/28 13:56:13;;;;;;;14.90;1.90;;;23.40;99.90;;;;;;5077060;28;20232;-74
2022/01/28 13:58:51;;;;;;;13.13;1.65;;;23.40;99.90;;;;;;5079310;28;20189;-73
2022/01/28 14:01:23;;;;;;;11.52;1.60;;;23.40;99.90;;;;;;5074153;28;20192;-74
2022/01/28 14:03:56;;;;;;;12.20;1.65;;;23.40;99.90;;;;;;5081475;28;20200;-74
2022/01/28 14:06:28;;;;;;;13.45;1.80;;;23.40;99.90;;;;;;5077135;28;20216;-73
2022/01/28 14:09:09;;;;;;;14.95;1.77;;;23.40;99.90;;;;;;5084467;28;20196;-74
2022/01/28 14:11:43;;;;;;;7.80;1.40;;;23.40;99.90;;;;;;5082197;28;20199;-74